createdAt,value
2019-03-04T00:01:45.552Z,7.07
2019-03-04T00:04:14.468Z,9.57
2019-03-04T00:06:44.081Z,4.43
2019-03-04T00:09:12.613Z,6.13
2019-03-04T00:11:41.596Z,6.77
2019-03-04T00:14:10.629Z,7.97
2019-03-04T00:16:42.621Z,6.53
2019-03-04T00:19:11.120Z,7.20
2019-03-04T00:21:39.965Z,6.47
2019-03-04T00:24:08.815Z,8.40
2019-03-04T00:26:37.474Z,7.43
2019-03-04T00:29:06.240Z,7.30
2019-03-04T00:31:35.061Z,8.20
2019-03-04T00:34:06.694Z,8.50
2019-03-04T00:36:38.502Z,6.20
2019-03-04T00:39:09.845Z,3.10
2019-03-04T00:41:38.722Z,5.33
2019-03-04T00:44:07.630Z,5.70
2019-03-04T00:46:48.026Z,5.30
2019-03-04T00:49:17.091Z,7.20
2019-03-04T00:51:52.008Z,4.77
2019-03-04T00:54:27.038Z,4.10
2019-03-04T00:56:55.844Z,4.90
2019-03-04T00:59:38.216Z,6.03
2019-03-04T01:02:06.825Z,5.67
2019-03-04T01:04:38.935Z,3.83
2019-03-04T01:07:08.122Z,5.00
2019-03-04T01:09:39.369Z,4.37
2019-03-04T01:12:08.099Z,5.90
2019-03-04T01:14:36.988Z,6.57
2019-03-04T01:17:08.538Z,7.33
2019-03-04T01:19:43.269Z,5.70
2019-03-04T01:22:12.119Z,4.30
2019-03-04T01:24:40.958Z,4.70
2019-03-04T01:27:10.011Z,3.70
2019-03-04T01:29:38.966Z,8.27
2019-03-04T01:32:09.942Z,7.50
2019-03-04T01:34:42.144Z,4.63
2019-03-04T01:37:10.710Z,3.70
2019-03-04T01:39:42.893Z,6.63
2019-03-04T01:42:11.525Z,3.00
2019-03-04T01:44:50.216Z,3.70
2019-03-04T01:47:28.767Z,5.33
2019-03-04T01:50:05.589Z,5.03
2019-03-04T01:55:32.579Z,5.20
2019-03-04T01:58:06.924Z,4.63
2019-03-04T02:00:37.613Z,5.37
2019-03-04T02:03:06.651Z,4.07
2019-03-04T02:05:38.645Z,3.77
2019-03-04T02:08:12.895Z,5.10
2019-03-04T02:10:54.470Z,4.27
2019-03-04T02:13:25.746Z,4.07
2019-03-04T02:15:54.692Z,4.37
2019-03-04T02:18:24.913Z,7.10
2019-03-04T02:20:53.805Z,7.00
2019-03-04T02:23:22.488Z,4.17
2019-03-04T02:26:08.912Z,5.27
2019-03-04T02:28:37.817Z,3.30
2019-03-04T02:31:07.565Z,3.73
2019-03-04T02:33:36.384Z,2.50
2019-03-04T02:36:09.723Z,3.77
2019-03-04T02:38:38.567Z,3.23
2019-03-04T02:41:08.030Z,6.07
2019-03-04T02:43:37.618Z,4.27
2019-03-04T02:46:12.255Z,4.63
2019-03-04T02:48:44.217Z,4.17
2019-03-04T02:51:13.381Z,5.67
2019-03-04T02:53:42.225Z,3.00
2019-03-04T02:56:11.832Z,6.10
2019-03-04T02:58:40.880Z,3.00
2019-03-04T03:01:09.642Z,4.87
2019-03-04T03:03:38.250Z,3.17
2019-03-04T03:06:07.463Z,3.57
2019-03-04T03:08:36.693Z,3.13
2019-03-04T03:11:05.720Z,4.37
2019-03-04T03:13:34.439Z,2.87
2019-03-04T03:16:03.507Z,3.00
2019-03-04T03:18:35.259Z,2.87
2019-03-04T03:21:04.590Z,2.93
2019-03-04T03:23:36.532Z,2.33
2019-03-04T03:26:08.313Z,3.90
2019-03-04T03:28:39.858Z,2.40
2019-03-04T03:31:11.066Z,3.87
2019-03-04T03:33:40.262Z,2.77
2019-03-04T03:36:09.179Z,5.43
2019-03-04T03:38:37.992Z,4.27
2019-03-04T03:41:08.510Z,3.33
2019-03-04T03:43:37.275Z,2.07
2019-03-04T03:46:05.967Z,3.10
2019-03-04T03:48:34.815Z,3.13
2019-03-04T03:51:03.965Z,2.97
2019-03-04T03:53:32.513Z,1.50
2019-03-04T03:56:01.808Z,1.40
2019-03-04T03:58:30.430Z,3.93
2019-03-04T04:00:59.239Z,2.50
2019-03-04T04:03:37.729Z,5.23
2019-03-04T04:06:08.076Z,1.87
2019-03-04T04:08:46.055Z,2.23
2019-03-04T04:11:18.087Z,2.27
2019-03-04T04:13:46.876Z,2.70
2019-03-04T04:16:15.816Z,4.57
2019-03-04T04:18:47.901Z,2.20
2019-03-04T04:21:16.842Z,2.23
2019-03-04T04:23:51.956Z,9.60
2019-03-04T04:26:23.408Z,5.00
2019-03-04T04:29:13.566Z,6.73
2019-03-04T04:31:43.017Z,9.00
2019-03-04T04:34:15.892Z,10.97
2019-03-04T04:36:46.558Z,11.67
2019-03-04T04:39:21.297Z,9.10
2019-03-04T04:41:59.528Z,10.23
2019-03-04T04:44:30.449Z,7.50
2019-03-04T04:47:00.741Z,11.23
2019-03-04T04:49:30.901Z,12.83
2019-03-04T04:52:06.126Z,9.10
2019-03-04T04:54:39.687Z,9.53
2019-03-04T04:57:09.010Z,11.20
2019-03-04T04:59:38.144Z,6.13
2019-03-04T05:02:09.680Z,4.83
2019-03-04T05:04:41.870Z,10.23
2019-03-04T05:07:12.870Z,6.60
2019-03-04T05:09:49.421Z,8.93
2019-03-04T05:12:18.937Z,10.07
2019-03-04T05:14:48.444Z,12.37
2019-03-04T05:17:24.167Z,9.90
2019-03-04T05:19:57.397Z,10.03
2019-03-04T05:22:26.145Z,10.63
2019-03-04T05:24:56.260Z,7.23
2019-03-04T05:27:28.558Z,10.27
2019-03-04T05:29:59.732Z,9.30
2019-03-04T05:32:32.324Z,6.07
2019-03-04T05:35:01.479Z,8.47
2019-03-04T05:37:33.638Z,4.70
2019-03-04T05:40:02.570Z,9.23
2019-03-04T05:42:36.284Z,6.20
2019-03-04T05:45:06.171Z,5.07
2019-03-04T05:47:36.686Z,5.23
2019-03-04T05:50:11.335Z,5.17
2019-03-04T05:52:40.250Z,10.43
2019-03-04T05:55:12.459Z,9.73
2019-03-04T05:57:41.204Z,9.30
2019-03-04T06:00:15.488Z,9.57
2019-03-04T06:02:49.110Z,10.60
2019-03-04T06:05:28.786Z,14.43
2019-03-04T06:08:03.004Z,16.03
2019-03-04T06:10:35.479Z,16.47
2019-03-04T06:13:04.685Z,16.30
2019-03-04T06:15:38.214Z,11.23
2019-03-04T06:18:09.128Z,16.67
2019-03-04T06:20:37.768Z,16.77
2019-03-04T06:23:07.169Z,23.53
2019-03-04T06:25:35.958Z,16.40
2019-03-04T06:28:04.948Z,13.50
2019-03-04T06:30:33.598Z,19.73
2019-03-04T06:33:02.728Z,15.30
2019-03-04T06:35:32.033Z,11.03
2019-03-04T06:38:00.768Z,9.97
2019-03-04T06:40:29.902Z,7.80
2019-03-04T06:42:58.640Z,13.17
2019-03-04T06:45:29.556Z,13.80
2019-03-04T06:47:57.886Z,16.63
2019-03-04T06:51:03.560Z,15.83
2019-03-04T06:53:51.376Z,13.27
2019-03-04T06:56:31.609Z,15.50
2019-03-04T06:59:03.733Z,14.57
2019-03-04T07:01:37.388Z,20.67
2019-03-04T07:04:10.163Z,22.87
2019-03-04T07:06:38.945Z,20.60
2019-03-04T07:09:09.638Z,14.87
2019-03-04T07:11:59.217Z,13.93
2019-03-04T07:14:28.169Z,12.60
2019-03-04T07:16:57.553Z,9.20
2019-03-04T07:19:30.962Z,9.60
2019-03-04T07:22:20.180Z,8.87
2019-03-04T07:24:49.010Z,6.93
2019-03-04T07:27:19.124Z,7.63
2019-03-04T07:29:48.225Z,6.30
2019-03-04T07:32:17.044Z,6.13
2019-03-04T07:34:48.594Z,6.23
2019-03-04T07:37:29.044Z,5.43
2019-03-04T07:39:59.720Z,8.83
2019-03-04T07:42:28.174Z,6.43
2019-03-04T07:44:56.748Z,4.97
2019-03-04T07:47:25.422Z,3.50
2019-03-04T07:49:53.993Z,7.40
2019-03-04T07:52:24.595Z,7.50
2019-03-04T07:54:53.744Z,7.90
2019-03-04T07:57:22.319Z,9.10
2019-03-04T07:59:50.866Z,9.27
2019-03-04T08:02:19.889Z,5.83
2019-03-04T08:04:48.623Z,4.93
2019-03-04T08:10:53.306Z,17.17
2019-03-04T08:13:28.137Z,8.60
2019-03-04T08:15:59.481Z,4.83
2019-03-04T08:18:36.108Z,11.57
2019-03-04T08:21:08.108Z,8.40
2019-03-04T08:23:49.143Z,3.70
2019-03-04T08:26:17.915Z,7.23
2019-03-04T08:28:46.902Z,9.30
2019-03-04T08:31:16.325Z,7.90
2019-03-04T08:33:53.169Z,5.20
2019-03-04T08:36:22.472Z,6.60
2019-03-04T08:38:51.820Z,5.87
2019-03-04T08:41:21.740Z,8.97
2019-03-04T08:43:51.081Z,4.70
2019-03-04T08:46:23.536Z,9.73
2019-03-04T08:48:59.464Z,6.10
2019-03-04T08:51:28.550Z,4.70
2019-03-04T08:54:02.255Z,8.10
2019-03-04T08:56:31.398Z,4.57
2019-03-04T08:59:00.454Z,7.03
2019-03-04T09:01:40.044Z,4.73
2019-03-04T09:04:09.203Z,7.43
2019-03-04T09:06:38.116Z,8.73
2019-03-04T09:09:13.058Z,10.43
2019-03-04T09:11:43.886Z,10.53
2019-03-04T09:14:17.363Z,12.53
2019-03-04T09:16:46.097Z,6.97
2019-03-04T09:19:17.433Z,5.10
2019-03-04T09:21:55.699Z,10.00
2019-03-04T09:24:24.450Z,7.27
2019-03-04T09:26:53.623Z,12.30
2019-03-04T09:29:22.447Z,9.37
2019-03-04T09:31:51.312Z,7.33
2019-03-04T09:34:21.290Z,9.50
2019-03-04T09:36:50.371Z,9.13
2019-03-04T09:39:19.152Z,7.47
2019-03-04T09:42:07.035Z,8.03
2019-03-04T09:44:59.555Z,6.30
2019-03-04T09:47:28.555Z,8.87
2019-03-04T09:50:21.998Z,6.17
2019-03-04T09:53:18.900Z,6.20
2019-03-04T09:55:48.542Z,5.83
2019-03-04T09:58:17.473Z,10.00
2019-03-04T10:00:56.618Z,5.47
2019-03-04T10:03:43.385Z,5.67
2019-03-04T10:06:21.674Z,10.17
2019-03-04T10:09:20.153Z,11.73
2019-03-04T10:12:08.807Z,12.00
2019-03-04T10:15:10.784Z,10.80
2019-03-04T10:18:21.319Z,11.93
2019-03-04T10:21:03.246Z,13.77
2019-03-04T10:23:57.134Z,10.93
2019-03-04T10:26:59.310Z,17.23
2019-03-04T10:29:42.187Z,14.57
2019-03-04T10:32:45.585Z,10.60
2019-03-04T10:35:34.128Z,13.47
2019-03-04T10:38:06.131Z,12.60
2019-03-04T10:40:52.510Z,21.33
2019-03-04T10:43:47.526Z,8.53
2019-03-04T10:46:34.436Z,13.20
2019-03-04T10:49:21.640Z,15.67
2019-03-04T10:51:50.266Z,15.70
2019-03-04T10:54:18.762Z,13.70
2019-03-04T10:56:50.521Z,10.93
2019-03-04T10:59:22.448Z,10.20
2019-03-04T11:01:54.149Z,14.80
2019-03-04T11:04:26.141Z,12.37
2019-03-04T11:06:55.481Z,16.27
2019-03-04T11:09:24.056Z,10.40
2019-03-04T11:11:52.814Z,13.37
2019-03-04T11:14:24.741Z,12.57
2019-03-04T11:16:53.564Z,11.27
2019-03-04T11:19:23.106Z,12.73
2019-03-04T11:21:52.101Z,14.10
2019-03-04T11:24:20.935Z,13.07
2019-03-04T11:26:49.669Z,10.20
2019-03-04T11:29:18.393Z,12.53
2019-03-04T11:31:47.575Z,18.07
2019-03-04T11:34:16.236Z,11.70
2019-03-04T11:36:45.276Z,19.73
2019-03-04T11:39:25.464Z,17.43
2019-03-04T11:41:59.258Z,10.37
2019-03-04T11:44:28.630Z,14.47
2019-03-04T11:47:00.540Z,9.60
2019-03-04T11:49:31.697Z,10.87
2019-03-04T11:52:00.395Z,18.53
2019-03-04T11:54:33.761Z,21.33
2019-03-04T11:57:02.370Z,12.87
2019-03-04T11:59:31.091Z,11.30
2019-03-04T12:02:02.890Z,11.93
2019-03-04T12:04:31.885Z,10.30
2019-03-04T12:07:05.431Z,13.43
2019-03-04T12:09:34.235Z,13.17
2019-03-04T12:12:02.859Z,11.77
2019-03-04T12:14:31.755Z,12.83
2019-03-04T12:17:00.279Z,15.13
2019-03-04T12:19:29.949Z,13.77
2019-03-04T12:21:59.412Z,13.33
2019-03-04T12:24:28.441Z,10.07
2019-03-04T12:26:58.793Z,13.13
2019-03-04T12:29:27.509Z,13.73
2019-03-04T12:32:05.952Z,10.43
2019-03-04T12:34:35.867Z,11.80
2019-03-04T12:37:04.548Z,10.67
2019-03-04T12:39:34.041Z,12.90
2019-03-04T12:42:02.946Z,13.37
2019-03-04T12:44:41.293Z,11.57
2019-03-04T12:47:13.518Z,8.47
2019-03-04T12:49:47.890Z,9.97
2019-03-04T12:52:16.531Z,13.60
2019-03-04T12:54:45.529Z,9.63
2019-03-04T12:57:14.006Z,9.73
2019-03-04T12:59:46.564Z,10.67
2019-03-04T13:02:15.412Z,14.03
2019-03-04T13:04:44.204Z,12.13
2019-03-04T13:07:12.880Z,11.87
2019-03-04T13:09:41.598Z,13.10
2019-03-04T13:12:10.373Z,9.00
2019-03-04T13:14:39.046Z,12.90
2019-03-04T13:17:07.783Z,9.17
2019-03-04T13:19:37.348Z,10.13
2019-03-04T13:22:08.764Z,15.50
2019-03-04T13:24:38.778Z,9.57
2019-03-04T13:27:09.009Z,8.10
2019-03-04T13:29:38.181Z,12.07
2019-03-04T13:32:11.172Z,11.83
2019-03-04T13:34:53.763Z,13.40
2019-03-04T13:37:22.573Z,13.70
2019-03-04T13:39:52.748Z,9.93
2019-03-04T13:42:21.454Z,10.37
2019-03-04T13:44:50.388Z,11.53
2019-03-04T13:47:22.224Z,12.53
2019-03-04T13:49:51.183Z,8.07
2019-03-04T13:52:20.160Z,10.33
2019-03-04T13:54:49.000Z,12.13
2019-03-04T13:57:17.760Z,10.37
2019-03-04T13:59:46.341Z,10.57
2019-03-04T14:02:15.943Z,7.03
2019-03-04T14:04:44.408Z,8.90
2019-03-04T14:07:13.056Z,9.07
2019-03-04T14:09:41.888Z,10.73
2019-03-04T14:12:10.436Z,13.10
2019-03-04T14:14:39.218Z,9.47
2019-03-04T14:23:34.138Z,9.23
2019-03-04T14:26:02.728Z,14.53
2019-03-04T14:28:31.350Z,7.37
2019-03-04T14:31:02.402Z,10.20
2019-03-04T14:33:30.822Z,12.83
2019-03-04T14:35:59.448Z,9.13
2019-03-04T14:38:27.998Z,7.87
2019-03-04T14:40:56.956Z,14.07
2019-03-04T14:43:33.362Z,10.07
2019-03-04T14:46:02.164Z,14.83
2019-03-04T14:48:32.665Z,11.33
2019-03-04T14:51:01.303Z,10.17
2019-03-04T14:53:29.894Z,14.40
2019-03-04T14:55:58.488Z,16.60
2019-03-04T14:58:27.075Z,15.60
2019-03-04T15:00:55.767Z,14.10
2019-03-04T15:03:24.449Z,14.90
2019-03-04T15:05:53.291Z,11.77
2019-03-04T15:08:21.830Z,12.53
2019-03-04T15:10:50.456Z,12.67
2019-03-04T15:13:19.204Z,9.20
2019-03-04T15:15:47.756Z,11.70
2019-03-04T15:18:16.358Z,10.77
2019-03-04T15:21:19.503Z,11.67
2019-03-04T15:23:48.051Z,10.17
2019-03-04T15:26:16.704Z,17.13
2019-03-04T15:32:53.913Z,9.70
2019-03-04T15:35:22.677Z,10.47
2019-03-04T15:37:51.741Z,10.30
2019-03-04T15:40:23.786Z,14.03
2019-03-04T15:42:52.645Z,11.30
2019-03-04T15:45:23.112Z,16.47
2019-03-04T15:48:20.737Z,13.33
2019-03-04T15:50:41.133Z,12.67
2019-03-04T15:53:25.826Z,15.23
2019-03-04T15:59:07.457Z,16.57
2019-03-04T16:01:54.968Z,7.43
2019-03-04T16:04:24.575Z,8.70
2019-03-04T16:06:57.372Z,11.73
2019-03-04T16:09:29.327Z,10.63
2019-03-04T16:11:59.717Z,13.23
2019-03-04T16:14:28.276Z,12.40
2019-03-04T16:16:58.616Z,12.97
2019-03-04T16:19:32.279Z,12.23
2019-03-04T16:22:01.266Z,8.73
2019-03-04T16:24:30.193Z,13.27
2019-03-04T16:27:02.983Z,14.87
2019-03-04T16:29:37.070Z,17.00
2019-03-04T16:32:04.445Z,16.00
2019-03-04T16:34:35.080Z,13.87
2019-03-04T16:37:09.730Z,14.73
2019-03-04T16:39:39.185Z,13.67
2019-03-04T16:42:10.551Z,12.37
2019-03-04T16:44:44.150Z,13.30
2019-03-04T16:47:16.074Z,16.73
2019-03-04T16:49:51.626Z,18.67
2019-03-04T16:52:22.656Z,13.57
2019-03-04T16:54:53.735Z,12.23
2019-03-04T16:57:25.072Z,13.47
2019-03-04T17:00:05.256Z,14.27
2019-03-04T17:02:34.533Z,17.53
2019-03-04T17:05:03.523Z,11.50
2019-03-04T17:07:38.848Z,12.87
2019-03-04T17:10:16.083Z,22.03
2019-03-04T17:12:47.885Z,13.73
2019-03-04T17:15:17.937Z,17.23
2019-03-04T17:21:00.880Z,19.50
2019-03-04T17:23:29.767Z,20.13
2019-03-04T17:26:15.946Z,15.50
2019-03-04T17:29:34.182Z,20.70
2019-03-04T17:38:25.433Z,17.87
2019-03-04T17:41:04.516Z,15.60
2019-03-04T18:04:31.883Z,14.37
2019-03-04T18:07:00.070Z,20.13
2019-03-04T18:18:15.406Z,14.53
2019-03-04T19:28:29.349Z,10.27
2019-03-04T19:33:49.826Z,10.13
2019-03-04T19:37:02.784Z,6.27
2019-03-04T19:42:38.392Z,13.40
2019-03-04T19:45:33.620Z,10.90
2019-03-04T19:53:32.546Z,16.53
2019-03-04T19:56:10.462Z,14.97
2019-03-04T19:59:10.386Z,13.57
2019-03-04T20:01:45.814Z,15.10
2019-03-04T20:04:29.566Z,12.47
2019-03-04T20:07:05.424Z,10.77
2019-03-04T20:09:54.733Z,17.70
2019-03-04T20:12:39.778Z,9.83
2019-03-04T20:15:13.914Z,12.70
2019-03-04T20:17:56.473Z,14.70
2019-03-04T20:20:31.356Z,15.73
2019-03-04T20:23:31.058Z,11.80
2019-03-04T20:26:21.456Z,13.13
2019-03-04T20:28:55.355Z,12.23
2019-03-04T20:31:34.128Z,14.77
2019-03-04T20:35:14.399Z,8.93
2019-03-04T20:43:58.647Z,18.23
2019-03-04T20:46:37.835Z,13.53
2019-03-04T20:58:13.305Z,12.97
2019-03-04T21:00:41.270Z,17.57
2019-03-04T21:03:41.468Z,14.63
2019-03-04T21:07:08.083Z,12.03
2019-03-04T21:09:50.377Z,12.57
2019-03-04T21:13:08.624Z,9.73
2019-03-04T21:15:31.231Z,12.17
2019-03-04T21:18:01.791Z,13.77
2019-03-04T21:28:15.522Z,17.60
2019-03-04T21:31:59.951Z,14.60
2019-03-04T21:34:42.753Z,15.00
2019-03-04T21:38:26.196Z,7.73
2019-03-04T21:48:18.828Z,18.83
2019-03-04T21:51:13.155Z,17.70
2019-03-04T21:53:45.655Z,12.97
2019-03-04T21:57:15.583Z,18.67
2019-03-04T22:00:34.979Z,14.03
2019-03-04T22:03:20.948Z,15.10
2019-03-04T22:05:52.773Z,12.87
2019-03-04T22:08:44.767Z,18.87
2019-03-04T22:11:45.586Z,17.93
2019-03-04T22:14:16.936Z,9.43
2019-03-04T22:16:45.844Z,15.27
2019-03-04T22:19:32.798Z,15.80
2019-03-04T22:22:12.398Z,19.07
2019-03-04T22:24:42.518Z,13.00
2019-03-04T22:27:11.167Z,13.17
2019-03-04T22:29:40.103Z,17.43
2019-03-04T22:32:09.041Z,18.03
2019-03-04T22:35:12.997Z,18.90
2019-03-04T22:37:54.651Z,13.97
2019-03-04T22:40:23.496Z,15.33
2019-03-04T22:42:52.171Z,18.00
2019-03-04T22:45:21.502Z,16.60
2019-03-04T22:48:16.726Z,15.67
2019-03-04T22:50:42.783Z,11.03
2019-03-04T22:53:31.630Z,11.23
2019-03-04T22:56:00.301Z,15.87
2019-03-04T23:01:45.888Z,20.80
2019-03-04T23:04:31.489Z,15.80
2019-03-04T23:07:06.834Z,18.23
2019-03-04T23:09:48.802Z,16.83
2019-03-04T23:12:30.955Z,13.03
2019-03-04T23:15:02.363Z,16.37
2019-03-04T23:17:32.966Z,16.83
2019-03-04T23:20:01.799Z,12.20
2019-03-04T23:25:50.629Z,13.20
2019-03-04T23:28:19.309Z,15.27
2019-03-04T23:30:49.737Z,15.47
2019-03-04T23:33:18.642Z,11.80
2019-03-04T23:35:47.471Z,14.67
2019-03-04T23:38:19.631Z,15.77
2019-03-04T23:44:11.349Z,11.73
2019-03-04T23:46:41.003Z,10.47
2019-03-04T23:49:10.394Z,18.23
2019-03-04T23:54:49.196Z,21.43
2019-03-04T23:57:17.874Z,11.77
2019-03-04T23:59:46.746Z,14.30
